createdAt,value
2023-03-20T00:03:12.925Z,389.47
2023-03-20T00:07:31.564Z,381.88
2023-03-20T00:11:51.392Z,384.40
2023-03-20T00:16:12.541Z,367.43
2023-03-20T00:20:33.554Z,354.50
2023-03-20T00:24:54.401Z,369.65
2023-03-20T00:29:21.466Z,367.47
2023-03-20T00:33:42.622Z,366.83
2023-03-20T00:38:04.067Z,401.63
2023-03-20T00:42:26.759Z,417.98
2023-03-20T00:46:47.760Z,430.23
2023-03-20T00:51:06.275Z,436.25
2023-03-20T00:55:28.635Z,471.35
2023-03-20T00:59:54.347Z,501.53
2023-03-20T01:04:14.756Z,520.38
2023-03-20T01:08:33.529Z,499.23
2023-03-20T01:12:53.364Z,510.93
2023-03-20T01:17:19.866Z,548.70
2023-03-20T01:21:36.965Z,620.35
2023-03-20T01:25:55.266Z,439.45
2023-03-20T01:30:22.562Z,355.73
2023-03-20T01:34:40.754Z,373.67
2023-03-20T01:39:00.011Z,399.75
2023-03-20T01:43:21.330Z,348.07
2023-03-20T01:47:43.111Z,324.67
2023-03-20T01:52:01.735Z,323.75
2023-03-20T01:56:22.776Z,339.30
2023-03-20T02:00:43.974Z,335.90
2023-03-20T02:05:12.532Z,296.38
2023-03-20T02:09:32.613Z,294.63
2023-03-20T02:13:56.477Z,293.30
2023-03-20T02:18:17.676Z,298.73
2023-03-20T02:23:08.658Z,298.30
2023-03-20T02:27:40.147Z,270.17
2023-03-20T02:32:42.482Z,265.80
2023-03-20T02:37:25.027Z,273.85
2023-03-20T02:41:50.298Z,327.87
2023-03-20T02:46:15.468Z,339.17
2023-03-20T02:50:43.488Z,317.38
2023-03-20T02:55:15.086Z,291.65
2023-03-20T02:59:41.516Z,280.17
2023-03-20T03:04:05.108Z,266.73
2023-03-20T03:08:26.160Z,276.50
2023-03-20T03:12:48.361Z,285.37
2023-03-20T03:17:09.572Z,275.55
2023-03-20T03:21:30.467Z,285.83
2023-03-20T03:25:51.661Z,299.53
2023-03-20T03:30:17.330Z,282.58
2023-03-20T03:34:38.127Z,280.77
2023-03-20T03:39:37.886Z,287.30
2023-03-20T03:44:38.059Z,278.37
2023-03-20T03:48:56.767Z,289.73
2023-03-20T03:53:18.580Z,299.48
2023-03-20T03:57:41.936Z,296.63
2023-03-20T04:02:05.836Z,299.52
2023-03-20T04:06:27.956Z,304.13
2023-03-20T04:10:46.042Z,310.83
2023-03-20T04:15:04.307Z,314.23
2023-03-20T04:19:24.944Z,317.00
2023-03-20T04:23:44.528Z,322.63
2023-03-20T04:28:04.739Z,316.50
2023-03-20T04:32:40.471Z,327.55
2023-03-20T04:37:14.064Z,328.40
2023-03-20T04:41:58.071Z,327.87
2023-03-20T04:46:17.653Z,335.05
2023-03-20T04:50:35.811Z,337.15
2023-03-20T04:54:53.768Z,341.43
2023-03-20T04:59:13.281Z,343.35
2023-03-20T05:03:33.338Z,349.08
2023-03-20T05:07:51.595Z,353.60
2023-03-20T05:12:30.832Z,357.83
2023-03-20T05:17:14.593Z,356.15
2023-03-20T05:21:52.848Z,359.15
2023-03-20T05:26:20.262Z,363.47
2023-03-20T05:30:59.633Z,364.48
2023-03-20T05:35:40.790Z,368.65
2023-03-20T05:40:19.688Z,370.50
2023-03-20T05:44:55.404Z,371.63
2023-03-20T05:49:16.501Z,369.73
2023-03-20T05:53:54.356Z,369.67
2023-03-20T05:58:27.304Z,369.03
2023-03-20T06:03:06.877Z,369.52
2023-03-20T06:07:42.291Z,366.25
2023-03-20T06:12:05.496Z,372.63
2023-03-20T06:16:24.934Z,368.60
2023-03-20T06:20:45.667Z,372.35
2023-03-20T06:25:03.969Z,371.70
2023-03-20T06:29:29.824Z,372.63
2023-03-20T06:33:58.656Z,371.65
2023-03-20T06:38:17.094Z,375.83
2023-03-20T06:42:37.396Z,373.37
2023-03-20T06:47:02.878Z,381.42
2023-03-20T06:51:22.757Z,385.98
2023-03-20T06:55:44.358Z,386.83
2023-03-20T07:00:02.292Z,388.08
2023-03-20T07:04:22.404Z,387.70
2023-03-20T07:08:44.558Z,390.13
2023-03-20T07:13:02.258Z,387.95
2023-03-20T07:17:20.242Z,384.25
2023-03-20T07:21:39.792Z,382.67
2023-03-20T07:26:00.030Z,379.80
2023-03-20T07:30:17.615Z,301.90
2023-03-20T07:34:39.107Z,312.30
2023-03-20T07:38:57.964Z,371.43
2023-03-20T07:43:18.312Z,388.10
2023-03-20T07:48:00.725Z,400.75
2023-03-20T07:52:18.650Z,403.60
2023-03-20T07:56:38.115Z,392.52
2023-03-20T08:00:58.768Z,392.17
2023-03-20T08:05:15.785Z,383.13
2023-03-20T08:09:33.989Z,380.33
2023-03-20T08:13:53.349Z,379.13
2023-03-20T08:18:13.020Z,374.25
2023-03-20T08:22:31.203Z,375.90
2023-03-20T08:26:49.203Z,371.48
2023-03-20T08:31:10.817Z,364.92
2023-03-20T08:35:33.277Z,362.07
2023-03-20T08:39:52.451Z,359.77
2023-03-20T08:44:10.697Z,363.88
2023-03-20T08:48:30.034Z,362.63
2023-03-20T08:52:49.808Z,361.30
2023-03-20T08:57:07.936Z,359.02
2023-03-20T09:01:32.674Z,356.48
2023-03-20T09:06:00.823Z,363.17
2023-03-20T09:10:20.588Z,364.00
2023-03-20T09:14:38.674Z,363.75
2023-03-20T09:18:56.485Z,366.90
2023-03-20T09:23:16.053Z,366.50
2023-03-20T09:27:36.066Z,368.23
2023-03-20T09:31:55.045Z,371.63
2023-03-20T09:36:16.018Z,374.27
2023-03-20T09:40:49.694Z,372.27
2023-03-20T09:45:15.703Z,373.88
2023-03-20T09:49:41.814Z,378.27
2023-03-20T09:54:05.710Z,374.33
2023-03-20T09:58:29.906Z,380.85
2023-03-20T10:02:53.938Z,376.50
2023-03-20T10:07:16.911Z,375.48
2023-03-20T10:11:50.141Z,374.30
2023-03-20T10:16:18.690Z,379.73
2023-03-20T10:20:43.013Z,380.10
2023-03-20T10:25:08.859Z,385.58
2023-03-20T10:29:34.134Z,391.48
2023-03-20T10:34:09.564Z,390.60
2023-03-20T10:38:34.644Z,385.17
2023-03-20T10:42:54.067Z,388.77
2023-03-20T10:47:17.755Z,389.60
2023-03-20T10:51:43.150Z,392.05
2023-03-20T10:56:06.495Z,384.33
2023-03-20T11:00:27.400Z,392.02
2023-03-20T11:04:46.795Z,384.30
2023-03-20T11:09:17.776Z,378.25
2023-03-20T11:13:36.805Z,354.15
2023-03-20T11:18:00.016Z,375.63
2023-03-20T11:22:26.787Z,378.33
2023-03-20T11:26:46.535Z,376.45
2023-03-20T11:31:08.332Z,382.03
2023-03-20T11:35:32.597Z,343.15
2023-03-20T11:40:01.918Z,373.38
2023-03-20T11:44:25.946Z,352.23
2023-03-20T11:48:46.833Z,380.17
2023-03-20T11:53:23.143Z,386.17
2023-03-20T11:57:47.379Z,384.17
2023-03-20T12:02:26.311Z,390.10
2023-03-20T12:06:55.011Z,378.05
2023-03-20T12:11:35.887Z,382.75
2023-03-20T12:15:56.819Z,376.60
2023-03-20T12:20:26.288Z,379.58
2023-03-20T12:24:50.589Z,373.92
2023-03-20T12:29:20.068Z,371.75
2023-03-20T12:33:45.406Z,367.70
2023-03-20T12:38:15.892Z,367.42
2023-03-20T12:42:45.932Z,364.15
2023-03-20T12:47:19.976Z,366.23
2023-03-20T12:51:51.936Z,365.60
2023-03-20T12:56:22.917Z,364.63
2023-03-20T13:00:49.651Z,364.00
2023-03-20T13:05:20.129Z,357.83
2023-03-20T13:10:03.998Z,344.80
2023-03-20T13:14:30.426Z,360.42
2023-03-20T13:19:00.983Z,363.27
2023-03-20T13:23:24.559Z,359.77
2023-03-20T13:27:50.821Z,358.38
2023-03-20T13:32:20.647Z,360.13
2023-03-20T13:36:53.592Z,341.48
2023-03-20T13:41:12.148Z,347.42
2023-03-20T13:45:35.702Z,334.97
2023-03-20T13:50:02.853Z,344.30
2023-03-20T13:54:38.592Z,328.42
2023-03-20T13:59:11.987Z,270.95
2023-03-20T14:03:34.973Z,327.47
2023-03-20T14:07:58.168Z,332.77
2023-03-20T14:12:18.246Z,327.05
2023-03-20T14:16:37.810Z,313.13
2023-03-20T14:20:58.296Z,336.40
2023-03-20T14:25:20.878Z,333.77
2023-03-20T14:29:40.101Z,330.87
2023-03-20T14:34:14.420Z,328.25
2023-03-20T14:38:36.642Z,332.63
2023-03-20T14:42:59.358Z,334.98
2023-03-20T14:47:26.018Z,334.73
2023-03-20T14:51:49.363Z,330.58
2023-03-20T14:56:14.157Z,299.08
2023-03-20T15:00:46.730Z,265.00
2023-03-20T15:05:05.096Z,246.23
2023-03-20T15:09:27.775Z,242.82
2023-03-20T15:13:47.289Z,246.00
2023-03-20T15:18:13.433Z,235.45
2023-03-20T15:23:05.047Z,241.82
2023-03-20T15:27:51.918Z,248.98
2023-03-20T15:32:14.969Z,252.57
2023-03-20T15:36:40.181Z,220.10
2023-03-20T15:40:59.259Z,240.20
2023-03-20T15:45:26.151Z,260.97
2023-03-20T15:49:44.622Z,261.20
2023-03-20T15:54:07.979Z,285.67
2023-03-20T15:58:30.613Z,290.57
2023-03-20T16:02:49.145Z,300.73
2023-03-20T16:07:22.184Z,297.33
2023-03-20T16:11:42.606Z,300.38
2023-03-20T16:16:01.825Z,308.47
2023-03-20T16:20:22.771Z,311.58
2023-03-20T16:24:41.559Z,311.38
2023-03-20T16:29:03.177Z,306.50
2023-03-20T16:33:22.250Z,318.73
2023-03-20T16:37:44.764Z,314.85
2023-03-20T16:42:12.807Z,318.43
2023-03-20T16:46:32.994Z,322.13
2023-03-20T16:51:00.035Z,321.35
2023-03-20T16:55:28.336Z,325.48
2023-03-20T16:59:57.483Z,324.83
2023-03-20T17:04:25.062Z,328.73
2023-03-20T17:08:52.062Z,328.23
2023-03-20T17:13:16.283Z,333.43
2023-03-20T17:17:40.685Z,333.85
2023-03-20T17:22:13.529Z,340.95
2023-03-20T17:26:38.131Z,386.97
2023-03-20T17:31:05.211Z,399.70
2023-03-20T17:35:29.175Z,409.63
2023-03-20T17:39:55.276Z,424.85
2023-03-20T17:44:19.299Z,446.00
2023-03-20T17:48:43.054Z,449.30
2023-03-20T17:53:07.088Z,463.27
2023-03-20T17:57:34.549Z,478.67
2023-03-20T18:01:58.461Z,486.27
2023-03-20T18:06:25.436Z,488.45
2023-03-20T18:10:50.295Z,509.67
2023-03-20T18:15:15.783Z,489.70
2023-03-20T18:19:39.778Z,477.90
2023-03-20T18:24:03.731Z,499.27
2023-03-20T18:28:27.547Z,473.40
2023-03-20T18:32:53.047Z,505.95
2023-03-20T18:37:17.168Z,530.40
2023-03-20T18:41:41.011Z,490.37
2023-03-20T18:46:05.021Z,506.75
2023-03-20T18:50:35.088Z,496.40
2023-03-20T18:55:01.226Z,494.53
2023-03-20T18:59:25.077Z,502.73
2023-03-20T19:03:49.221Z,494.92
2023-03-20T19:08:17.286Z,496.25
2023-03-20T19:12:41.172Z,499.63
2023-03-20T19:17:05.429Z,494.48
2023-03-20T19:21:30.066Z,498.42
2023-03-20T19:25:57.811Z,497.03
2023-03-20T19:30:28.746Z,490.98
2023-03-20T19:35:38.927Z,497.85
2023-03-20T19:39:36.422Z,496.97
2023-03-20T19:44:01.863Z,507.83
2023-03-20T19:48:27.474Z,495.17
2023-03-20T19:52:51.306Z,504.10
2023-03-20T19:57:15.403Z,505.60
2023-03-20T20:01:40.716Z,508.38
2023-03-20T20:06:04.930Z,514.63
2023-03-20T20:10:32.766Z,509.80
2023-03-20T20:14:56.774Z,516.40
2023-03-20T20:19:17.170Z,510.88
2023-03-20T20:23:42.563Z,504.40
2023-03-20T20:28:07.345Z,517.90
2023-03-20T20:32:31.369Z,510.67
2023-03-20T20:41:40.407Z,522.83
2023-03-20T20:46:04.596Z,522.42
2023-03-20T20:50:30.558Z,526.53
2023-03-20T20:54:56.493Z,521.03
2023-03-20T20:59:16.115Z,525.60
2023-03-20T21:03:40.327Z,524.33
2023-03-20T21:08:04.287Z,519.70
2023-03-20T21:12:38.113Z,526.17
2023-03-20T21:17:05.925Z,527.25
2023-03-20T21:21:30.827Z,532.47
2023-03-20T21:25:55.175Z,527.47
2023-03-20T21:30:21.528Z,519.88
2023-03-20T21:34:45.497Z,523.30
2023-03-20T21:39:10.461Z,519.70
2023-03-20T21:43:34.501Z,511.55
2023-03-20T21:48:33.474Z,505.17
2023-03-20T21:53:20.200Z,504.17
2023-03-20T22:02:23.555Z,474.75
2023-03-20T22:12:16.666Z,477.87
2023-03-20T22:17:36.594Z,465.58
2023-03-20T22:31:26.807Z,485.73
2023-03-20T22:36:17.906Z,489.00
2023-03-20T22:45:04.710Z,489.45
2023-03-20T22:49:29.249Z,487.33
2023-03-20T22:53:53.196Z,500.67
2023-03-20T22:58:18.909Z,503.67
2023-03-20T23:02:44.130Z,497.13
2023-03-20T23:07:08.023Z,506.45
2023-03-20T23:11:32.033Z,505.53
2023-03-20T23:15:55.906Z,501.30
2023-03-20T23:20:21.810Z,516.95
2023-03-20T23:24:45.854Z,502.77
2023-03-20T23:29:09.744Z,521.08
2023-03-20T23:33:33.982Z,515.88
2023-03-20T23:37:59.265Z,507.35
2023-03-20T23:42:30.377Z,514.37
2023-03-20T23:46:55.698Z,514.10
2023-03-20T23:51:19.587Z,519.30
2023-03-20T23:55:47.448Z,521.97
